Time;durP1;ratioP1;P1;durP2;ratioP2;P2;SDS_P1;SDS_P2;PMS_P1;PMS_P2;Temp;Humidity;BMP_temperature;BMP_pressure;BME280_temperature;BME280_humidity;BME280_pressure;Samples;Min_cycle;Max_cycle;Signal;HPM_P1;HPM_P2
2022/12/15 00:40:38;;;;;;;18.55;13.82;;;2.10;99.90;;;;;;5012789;28;20053;-67
2022/12/15 00:43:10;;;;;;;26.60;15.20;;;2.10;99.90;;;;;;5012380;28;20151;-66
2022/12/15 00:48:27;;;;;;;22.92;13.90;;;2.10;99.90;;;;;;4997392;28;20053;-68
2022/12/15 00:50:54;;;;;;;20.92;13.57;;;2.10;99.90;;;;;;5011759;28;20048;-66
2022/12/15 01:21:04;;;;;;;23.50;14.75;;;2.00;99.90;;;;;;5016574;28;20051;-67
2022/12/15 01:23:32;;;;;;;20.08;13.63;;;2.00;99.90;;;;;;5015035;28;20041;-66
2022/12/15 01:26:00;;;;;;;22.48;14.40;;;2.00;99.90;;;;;;5015669;28;20166;-65
2022/12/15 01:28:27;;;;;;;21.00;14.07;;;2.00;99.90;;;;;;5014111;28;20045;-64
2022/12/15 01:30:54;;;;;;;36.22;14.23;;;2.00;99.90;;;;;;5014752;28;20047;-65
2022/12/15 01:33:21;;;;;;;48.40;15.70;;;2.00;99.90;;;;;;5015587;28;20508;-64
2022/12/15 01:36:00;;;;;;;20.40;12.90;;;2.00;99.90;;;;;;5015482;28;20267;-66
2022/12/15 01:38:28;;;;;;;26.70;12.52;;;2.00;99.90;;;;;;5016234;28;20534;-64
2022/12/15 01:41:01;;;;;;;17.10;12.20;;;2.00;99.90;;;;;;5015105;28;20072;-67
2022/12/15 01:43:31;;;;;;;24.88;14.70;;;1.90;99.90;;;;;;5016948;28;20048;-64
2022/12/15 01:46:14;;;;;;;17.80;12.52;;;1.90;99.90;;;;;;5015921;28;20063;-66
2022/12/15 01:49:14;;;;;;;20.17;13.13;;;1.90;99.90;;;;;;5021378;28;20200;-67
2022/12/15 01:51:46;;;;;;;25.98;14.57;;;1.90;99.90;;;;;;5021295;28;20095;-65
2022/12/15 01:54:25;;;;;;;23.60;15.05;;;1.90;99.90;;;;;;5014052;28;20045;-67
2022/12/15 01:56:59;;;;;;;20.60;13.27;;;1.90;99.90;;;;;;5016876;28;20131;-67
2022/12/15 01:59:31;;;;;;;19.52;13.07;;;1.90;99.90;;;;;;5015792;28;20397;-66
2022/12/15 02:01:58;;;;;;;23.42;13.98;;;1.90;99.90;;;;;;5015442;28;20076;-67
2022/12/15 02:04:25;;;;;;;31.65;14.40;;;1.90;99.90;;;;;;5014600;28;20555;-64
2022/12/15 02:06:52;;;;;;;23.55;13.57;;;1.90;99.90;;;;;;5013103;28;20053;-65
2022/12/15 02:09:21;;;;;;;16.08;11.63;;;1.90;99.90;;;;;;5016466;28;20172;-66
2022/12/15 02:11:59;;;;;;;19.33;12.48;;;1.90;99.90;;;;;;5014468;28;20565;-66
2022/12/15 02:14:49;;;;;;;20.55;13.13;;;1.90;99.90;;;;;;5013048;28;20149;-66
2022/12/15 02:17:45;;;;;;;18.50;12.02;;;1.90;99.90;;;;;;5012271;28;20057;-64
2022/12/15 02:20:18;;;;;;;38.08;14.95;;;1.90;99.90;;;;;;5013471;28;20128;-69
2022/12/15 02:22:47;;;;;;;23.23;14.57;;;1.90;99.90;;;;;;5011916;28;20124;-66
2022/12/15 02:25:52;;;;;;;19.00;12.10;;;1.90;99.90;;;;;;5013311;28;20048;-65
2022/12/15 02:29:00;;;;;;;23.35;13.98;;;2.00;99.90;;;;;;5014630;28;20051;-66
2022/12/15 02:31:53;;;;;;;22.45;14.63;;;2.00;99.90;;;;;;5013906;28;20037;-66
2022/12/15 02:34:28;;;;;;;20.20;12.45;;;1.90;99.90;;;;;;5014938;28;20095;-67
2022/12/15 02:37:02;;;;;;;17.90;11.30;;;2.00;99.90;;;;;;5014089;28;20080;-64
2022/12/15 02:39:29;;;;;;;137.27;17.90;;;2.00;99.90;;;;;;5015609;28;20174;-63
2022/12/15 02:41:56;;;;;;;22.75;13.55;;;1.90;99.90;;;;;;5014624;28;20049;-66
2022/12/15 02:45:00;;;;;;;30.23;12.65;;;2.00;99.90;;;;;;5014012;28;20049;-64
2022/12/15 02:47:37;;;;;;;61.95;12.75;;;2.00;99.90;;;;;;5014137;28;20451;-64
2022/12/15 02:50:04;;;;;;;;;;;2.00;99.90;;;;;;5014909;28;20475;-65
2022/12/15 02:53:10;;;;;;;18.65;10.88;;;2.00;99.90;;;;;;5016210;28;20337;-66
2022/12/15 02:55:53;;;;;;;40.47;12.63;;;2.00;99.90;;;;;;5008767;28;20061;-65
2022/12/15 02:58:32;;;;;;;24.60;10.88;;;2.00;99.90;;;;;;5013557;28;20599;-66
2022/12/15 03:01:15;;;;;;;16.67;10.55;;;2.00;99.90;;;;;;5014216;28;20562;-66
2022/12/15 03:03:44;;;;;;;15.55;10.93;;;2.00;99.90;;;;;;5013235;28;20558;-64
2022/12/15 03:06:11;;;;;;;13.73;9.80;;;2.00;99.90;;;;;;5012184;28;20057;-67
2022/12/15 03:08:37;;;;;;;12.98;9.23;;;2.00;99.90;;;;;;5015528;28;20140;-68
2022/12/15 03:11:04;;;;;;;18.00;11.27;;;2.00;99.90;;;;;;5014760;28;20045;-67
2022/12/15 03:13:31;;;;;;;;;;;2.00;99.90;;;;;;5016078;28;20577;-67
2022/12/15 03:15:59;;;;;;;12.55;8.93;;;2.00;99.90;;;;;;5012648;28;20301;-66
2022/12/15 03:18:26;;;;;;;31.73;10.48;;;2.00;99.90;;;;;;5013589;28;20072;-67
2022/12/15 03:20:52;;;;;;;20.02;9.43;;;2.00;99.90;;;;;;5012906;28;20041;-67
2022/12/15 03:23:21;;;;;;;;;;;2.00;99.90;;;;;;5012909;28;20050;-65
2022/12/15 03:25:49;;;;;;;12.70;9.55;;;2.00;99.90;;;;;;5011769;28;20602;-65
2022/12/15 03:28:16;;;;;;;15.70;10.20;;;1.90;99.90;;;;;;5010498;28;20041;-66
2022/12/15 03:30:43;;;;;;;20.10;12.98;;;1.90;99.90;;;;;;5028439;28;20171;-66
2022/12/15 03:33:10;;;;;;;26.17;11.25;;;1.90;99.90;;;;;;5013648;28;20147;-65
2022/12/15 03:35:37;;;;;;;;;;;1.90;99.90;;;;;;5014363;28;20304;-63
2022/12/15 03:38:03;;;;;;;16.85;11.05;;;1.90;99.90;;;;;;5014701;28;20342;-65
2022/12/15 03:40:30;;;;;;;;;;;1.90;99.90;;;;;;5013657;28;20273;-64
2022/12/15 03:42:57;;;;;;;20.55;11.15;;;1.90;99.90;;;;;;5012583;28;19954;-64
2022/12/15 03:45:25;;;;;;;17.40;11.20;;;1.90;99.90;;;;;;5012425;28;20053;-66
2022/12/15 03:47:54;;;;;;;15.95;10.70;;;1.90;99.90;;;;;;5012199;28;20658;-67
2022/12/15 03:50:23;;;;;;;15.27;10.18;;;1.90;99.90;;;;;;5015298;28;20041;-67
2022/12/15 03:53:01;;;;;;;14.45;9.70;;;1.90;99.90;;;;;;5013112;28;20336;-68
2022/12/15 03:55:28;;;;;;;14.68;10.27;;;1.90;99.90;;;;;;5012655;28;20044;-66
2022/12/15 03:57:56;;;;;;;13.75;9.05;;;1.90;99.90;;;;;;5011850;28;20152;-67
2022/12/15 04:00:23;;;;;;;13.13;8.52;;;1.90;99.90;;;;;;5011312;28;20050;-67
2022/12/15 04:02:50;;;;;;;13.48;9.35;;;1.90;99.90;;;;;;5012438;28;20156;-67
2022/12/15 04:05:25;;;;;;;14.80;9.65;;;1.90;99.90;;;;;;5010937;28;20051;-67
2022/12/15 04:07:53;;;;;;;13.15;9.23;;;1.90;99.90;;;;;;5011513;28;20478;-65
2022/12/15 04:10:20;;;;;;;14.38;10.02;;;1.80;99.90;;;;;;5014854;28;20041;-65
2022/12/15 04:12:47;;;;;;;14.25;9.93;;;1.80;99.90;;;;;;5012514;28;20053;-66
2022/12/15 04:15:13;;;;;;;;;;;1.80;99.90;;;;;;5011804;28;20041;-65
2022/12/15 04:17:40;;;;;;;16.15;10.27;;;1.80;99.90;;;;;;5011766;28;19978;-67
2022/12/15 04:20:08;;;;;;;15.45;9.52;;;1.80;99.90;;;;;;5011909;28;20312;-66
2022/12/15 04:22:43;;;;;;;15.48;10.32;;;1.80;99.90;;;;;;5012198;28;20127;-67
2022/12/15 05:32:06;;;;;;;25.23;14.32;;;1.70;99.90;;;;;;5015525;28;20071;-67
2022/12/15 05:34:34;;;;;;;26.50;15.07;;;1.70;99.90;;;;;;5015599;28;20395;-66
2022/12/15 05:37:03;;;;;;;32.92;16.13;;;1.70;99.90;;;;;;5016166;28;20388;-66
2022/12/15 05:39:30;;;;;;;25.55;13.95;;;1.70;99.90;;;;;;5014657;28;20195;-65
2022/12/15 05:41:57;;;;;;;22.38;13.43;;;1.70;99.90;;;;;;5031046;28;20683;-65
2022/12/15 05:44:24;;;;;;;;;;;1.60;99.90;;;;;;5016015;28;20056;-66
2022/12/15 05:46:51;;;;;;;24.67;15.10;;;1.60;99.90;;;;;;5014185;28;20967;-65
2022/12/15 05:49:19;;;;;;;17.92;12.13;;;1.60;99.90;;;;;;5014097;28;20508;-62
2022/12/15 05:51:47;;;;;;;15.57;11.13;;;1.60;99.90;;;;;;5013486;28;20541;-66
2022/12/15 05:54:17;;;;;;;19.15;12.38;;;1.60;99.90;;;;;;5015809;28;20045;-62
2022/12/15 05:56:45;;;;;;;440.48;28.55;;;1.60;99.90;;;;;;5013522;28;20127;-63
2022/12/15 05:59:12;;;;;;;17.75;11.65;;;1.60;99.90;;;;;;5017842;28;20452;-63
2022/12/15 06:01:38;;;;;;;40.85;13.32;;;1.50;99.90;;;;;;5014647;28;20095;-63
2022/12/15 06:04:06;;;;;;;23.88;13.25;;;1.50;99.90;;;;;;5013846;28;20567;-65
2022/12/15 06:06:33;;;;;;;29.50;13.80;;;1.50;99.90;;;;;;5015627;28;20588;-64
2022/12/15 06:09:00;;;;;;;21.55;11.52;;;1.50;99.90;;;;;;5015962;28;20980;-63
2022/12/15 06:11:27;;;;;;;;;;;1.50;99.90;;;;;;5014819;28;20049;-66
2022/12/15 06:13:54;;;;;;;24.27;14.30;;;1.50;99.90;;;;;;5011907;28;19924;-64
2022/12/15 06:16:23;;;;;;;23.08;14.07;;;1.50;99.90;;;;;;5013037;28;20125;-63
2022/12/15 06:18:57;;;;;;;101.47;16.48;;;1.50;99.90;;;;;;5013711;28;20049;-64
2022/12/15 06:21:34;;;;;;;52.63;13.07;;;1.50;99.90;;;;;;5015274;28;20455;-55
2022/12/15 06:24:05;;;;;;;52.72;13.95;;;1.50;99.90;;;;;;5010650;28;20235;-54
2022/12/15 06:26:35;;;;;;;303.75;24.13;;;1.60;99.90;;;;;;5013074;28;20045;-53
2022/12/15 06:29:07;;;;;;;498.50;30.88;;;1.50;99.90;;;;;;5011910;28;20055;-55
2022/12/15 06:31:34;;;;;;;15.65;11.63;;;1.50;99.90;;;;;;5012651;28;20299;-51
2022/12/15 06:34:06;;;;;;;52.38;11.93;;;1.50;99.90;;;;;;5012083;28;20045;-57
2022/12/15 06:36:33;;;;;;;14.52;10.75;;;1.50;99.90;;;;;;5013764;28;20576;-55
2022/12/15 06:39:03;;;;;;;11.65;8.63;;;1.50;99.90;;;;;;5014545;28;20084;-54
2022/12/15 06:41:30;;;;;;;14.05;10.68;;;1.50;99.90;;;;;;5013067;28;20073;-53
2022/12/15 06:43:58;;;;;;;17.75;10.48;;;1.50;99.90;;;;;;5013500;28;20052;-53
2022/12/15 06:46:26;;;;;;;15.90;11.25;;;1.50;99.90;;;;;;5011738;28;20112;-55
2022/12/15 06:48:53;;;;;;;12.68;9.77;;;1.60;99.90;;;;;;5013804;28;20176;-54
2022/12/15 06:51:20;;;;;;;12.57;10.00;;;1.60;99.90;;;;;;5012828;28;20045;-56
2022/12/15 06:53:52;;;;;;;17.27;11.90;;;1.60;99.90;;;;;;5013199;28;20044;-54
2022/12/15 06:56:21;;;;;;;17.35;11.90;;;1.60;99.90;;;;;;5013844;28;20534;-54
2022/12/15 06:58:57;;;;;;;22.40;14.48;;;1.60;99.90;;;;;;5012492;28;20053;-53
2022/12/15 07:01:24;;;;;;;25.25;13.98;;;1.60;99.90;;;;;;5010758;28;20554;-52
2022/12/15 07:03:52;;;;;;;35.38;15.73;;;1.60;99.90;;;;;;5012046;28;20060;-56
2022/12/15 07:06:19;;;;;;;25.75;12.77;;;1.60;99.90;;;;;;5013249;28;20309;-54
2022/12/15 07:08:52;;;;;;;247.52;22.42;;;1.60;99.90;;;;;;5012278;28;20138;-53
2022/12/15 07:11:20;;;;;;;43.13;14.93;;;1.60;99.90;;;;;;5012204;28;20149;-51
2022/12/15 07:13:51;;;;;;;60.05;14.20;;;1.60;99.90;;;;;;5015179;28;20055;-55
2022/12/15 07:16:20;;;;;;;26.05;10.90;;;1.60;99.90;;;;;;5013849;28;20199;-55
2022/12/15 07:18:47;;;;;;;14.10;9.85;;;1.60;99.90;;;;;;5030947;28;20268;-56
2022/12/15 07:21:14;;;;;;;171.50;18.90;;;1.50;99.90;;;;;;5012728;28;20128;-55
2022/12/15 07:23:40;;;;;;;19.20;10.25;;;1.60;99.90;;;;;;5013753;28;20424;-54
2022/12/15 07:26:24;;;;;;;25.30;12.60;;;1.50;99.90;;;;;;5011740;28;20048;-54
2022/12/15 07:28:52;;;;;;;19.63;13.20;;;1.50;99.90;;;;;;5010880;28;20044;-57
2022/12/15 07:31:20;;;;;;;40.00;12.65;;;1.50;99.90;;;;;;5011883;28;20041;-54
2022/12/15 07:33:47;;;;;;;26.90;13.82;;;1.50;99.90;;;;;;5014296;28;20513;-55
2022/12/15 07:36:14;;;;;;;185.63;20.25;;;1.60;99.90;;;;;;5011669;28;20037;-54
2022/12/15 07:38:41;;;;;;;15.88;10.90;;;1.60;99.90;;;;;;5010754;28;20361;-52
2022/12/15 07:41:08;;;;;;;154.57;17.33;;;1.50;99.90;;;;;;5012815;28;20065;-56
2022/12/15 07:43:35;;;;;;;24.52;12.88;;;1.50;99.90;;;;;;5009553;28;20565;-56
2022/12/15 07:46:04;;;;;;;42.75;16.65;;;1.50;99.90;;;;;;5009532;28;20576;-55
2022/12/15 07:48:32;;;;;;;23.38;15.38;;;1.50;99.90;;;;;;5010633;28;20071;-55
2022/12/15 07:51:07;;;;;;;22.25;14.88;;;1.50;99.90;;;;;;5011035;28;20089;-57
2022/12/15 07:53:42;;;;;;;19.88;14.52;;;1.60;99.90;;;;;;5011328;28;20522;-56
2022/12/15 07:56:09;;;;;;;;;;;1.50;99.90;;;;;;5015406;28;20045;-56
2022/12/15 07:58:37;;;;;;;409.50;28.58;;;1.50;99.90;;;;;;5010986;28;20457;-54
2022/12/15 08:01:06;;;;;;;158.50;20.60;;;1.60;99.90;;;;;;5012457;28;20506;-55
2022/12/15 08:03:34;;;;;;;284.92;22.75;;;1.50;99.90;;;;;;5009869;28;20050;-51
2022/12/15 08:06:04;;;;;;;218.20;25.60;;;1.50;99.90;;;;;;5015866;28;20586;-53
2022/12/15 08:08:31;;;;;;;102.45;18.10;;;1.50;99.90;;;;;;5019042;28;20473;-54
2022/12/15 08:11:10;;;;;;;18.85;14.02;;;1.50;99.90;;;;;;5012366;28;20115;-54
2022/12/15 08:13:37;;;;;;;46.72;15.65;;;1.50;99.90;;;;;;5009415;28;20047;-54
2022/12/15 08:16:25;;;;;;;70.40;17.88;;;1.50;99.90;;;;;;5011269;28;20318;-53
2022/12/15 08:18:52;;;;;;;79.03;19.65;;;1.50;99.90;;;;;;5013351;28;20051;-54
2022/12/15 08:21:18;;;;;;;31.83;13.75;;;1.50;99.90;;;;;;4998397;28;20060;-52
2022/12/15 08:23:45;;;;;;;334.02;32.28;;;1.50;99.90;;;;;;5010241;28;20547;-54
2022/12/15 08:26:16;;;;;;;21.42;15.25;;;1.50;99.90;;;;;;5012282;28;20055;-55
2022/12/15 08:28:43;;;;;;;150.55;19.92;;;1.50;99.90;;;;;;5007838;28;20060;-56
2022/12/15 08:31:18;;;;;;;127.20;20.63;;;1.50;99.90;;;;;;5010682;28;20033;-54
2022/12/15 08:33:46;;;;;;;85.97;18.50;;;1.50;99.90;;;;;;5012390;28;20458;-55
2022/12/15 08:36:15;;;;;;;41.75;16.27;;;1.50;99.90;;;;;;5011307;28;20116;-52
2022/12/15 08:38:44;;;;;;;24.08;15.65;;;1.50;99.90;;;;;;5013268;28;20049;-54
2022/12/15 08:41:14;;;;;;;39.80;15.68;;;1.50;99.90;;;;;;5013841;28;20408;-53
2022/12/15 08:43:41;;;;;;;640.55;43.45;;;1.50;99.90;;;;;;5012252;28;20050;-55
2022/12/15 08:46:21;;;;;;;325.58;27.40;;;1.50;99.90;;;;;;5024631;28;20238;-53
2022/12/15 08:48:48;;;;;;;22.13;14.52;;;1.50;99.90;;;;;;5009231;28;20045;-50
2022/12/15 08:51:16;;;;;;;158.35;22.42;;;1.50;99.90;;;;;;5012914;28;20045;-52
2022/12/15 08:53:43;;;;;;;128.82;22.85;;;1.50;99.90;;;;;;5010952;28;20593;-53
2022/12/15 08:56:14;;;;;;;89.80;20.25;;;1.50;99.90;;;;;;5013571;28;20052;-50
2022/12/15 08:58:41;;;;;;;148.32;19.95;;;1.50;99.90;;;;;;5011669;28;20049;-52
2022/12/15 09:01:17;;;;;;;39.20;17.00;;;1.50;99.90;;;;;;5011148;28;20051;-54
2022/12/15 09:03:51;;;;;;;44.78;17.27;;;1.50;99.90;;;;;;5011565;28;20783;-53
2022/12/15 09:06:27;;;;;;;204.75;23.85;;;1.50;99.90;;;;;;5011650;28;20277;-55
2022/12/15 09:08:55;;;;;;;130.23;20.90;;;1.50;99.90;;;;;;5010661;28;20414;-57
2022/12/15 09:11:23;;;;;;;79.22;18.52;;;1.50;99.90;;;;;;5010023;28;20499;-54
2022/12/15 09:13:50;;;;;;;99.90;18.80;;;1.50;99.90;;;;;;5011582;28;20061;-53
2022/12/15 09:16:17;;;;;;;;;;;1.50;99.90;;;;;;5010178;28;20045;-54
2022/12/15 09:18:46;;;;;;;72.10;17.48;;;1.50;99.90;;;;;;5011841;28;20448;-53
2022/12/15 09:21:14;;;;;;;40.10;17.25;;;1.50;99.90;;;;;;5012154;28;20057;-54
2022/12/15 09:23:41;;;;;;;155.40;22.02;;;1.50;99.90;;;;;;5010701;28;20421;-53
2022/12/15 09:26:15;;;;;;;37.92;16.08;;;1.50;99.90;;;;;;5012941;28;20127;-52
2022/12/15 09:28:42;;;;;;;119.20;19.05;;;1.50;99.90;;;;;;5015384;28;20037;-51
2022/12/15 09:31:12;;;;;;;214.15;24.48;;;1.50;99.90;;;;;;5019669;28;20037;-53
2022/12/15 09:33:41;;;;;;;127.53;19.73;;;1.50;99.90;;;;;;5015082;28;20046;-53
2022/12/15 09:36:09;;;;;;;50.15;16.80;;;1.50;99.90;;;;;;5012695;28;20758;-53
2022/12/15 09:38:37;;;;;;;239.60;24.17;;;1.50;99.90;;;;;;5017116;28;20068;-52
2022/12/15 09:41:16;;;;;;;41.75;15.88;;;1.50;99.90;;;;;;5014607;28;20431;-50
2022/12/15 09:44:20;;;;;;;421.48;33.83;;;1.40;99.90;;;;;;5015450;28;20524;-55
2022/12/15 09:46:54;;;;;;;63.45;16.38;;;1.40;99.90;;;;;;4993195;28;20511;-54
2022/12/15 09:49:39;;;;;;;202.82;24.15;;;1.40;99.90;;;;;;5009494;28;20453;-51
2022/12/15 09:52:11;;;;;;;34.42;17.08;;;1.40;99.90;;;;;;5013947;28;20576;-51
2022/12/15 09:54:42;;;;;;;35.72;16.77;;;1.40;99.90;;;;;;5014954;28;20073;-53
2022/12/15 09:57:35;;;;;;;25.00;17.55;;;1.50;99.90;;;;;;5014480;28;20379;-52
2022/12/15 10:00:20;;;;;;;27.73;15.50;;;1.50;99.90;;;;;;5013337;28;20147;-53
2022/12/15 10:03:12;;;;;;;23.48;16.63;;;1.50;99.90;;;;;;5016475;28;20065;-51
2022/12/15 10:06:10;;;;;;;88.57;19.13;;;1.50;99.90;;;;;;5014355;28;20060;-53
2022/12/15 10:08:52;;;;;;;45.38;19.13;;;1.60;99.90;;;;;;5012937;28;20102;-52
2022/12/15 10:11:47;;;;;;;27.77;17.38;;;1.60;99.90;;;;;;5015722;28;20049;-53
2022/12/15 10:14:33;;;;;;;295.75;27.35;;;1.60;99.90;;;;;;5015414;28;20049;-51
2022/12/15 10:17:22;;;;;;;31.85;16.80;;;1.70;99.90;;;;;;5013949;28;20071;-54
2022/12/15 10:20:01;;;;;;;23.48;16.77;;;1.70;99.90;;;;;;5015831;28;20077;-56
2022/12/15 10:22:34;;;;;;;34.63;17.52;;;1.70;99.90;;;;;;5014057;28;20515;-56
2022/12/15 10:25:19;;;;;;;23.05;16.00;;;1.80;99.90;;;;;;5009982;28;20588;-55
2022/12/15 10:27:55;;;;;;;55.20;19.20;;;1.80;99.90;;;;;;5013361;28;20476;-54
2022/12/15 10:30:22;;;;;;;;;;;1.80;99.90;;;;;;5013015;28;20095;-55
2022/12/15 10:33:18;;;;;;;28.17;18.13;;;1.80;99.90;;;;;;5012657;28;19929;-56
2022/12/15 10:35:46;;;;;;;64.82;20.58;;;1.80;99.90;;;;;;5013502;28;20091;-56
2022/12/15 10:38:31;;;;;;;38.22;19.17;;;1.80;99.90;;;;;;5014491;28;20033;-55
2022/12/15 10:41:20;;;;;;;71.53;20.80;;;1.90;99.90;;;;;;5015416;28;20044;-56
2022/12/15 10:43:50;;;;;;;26.58;17.40;;;1.90;99.90;;;;;;5011018;28;20179;-56
2022/12/15 10:46:18;;;;;;;32.03;17.63;;;1.90;99.90;;;;;;5015275;28;20053;-53
2022/12/15 10:48:48;;;;;;;32.70;18.98;;;1.90;99.90;;;;;;5013162;28;20049;-55
2022/12/15 10:51:23;;;;;;;30.80;18.77;;;2.00;99.90;;;;;;5013992;28;20044;-56
2022/12/15 10:53:59;;;;;;;27.23;17.83;;;2.00;99.90;;;;;;5014106;28;20138;-55
2022/12/15 10:56:28;;;;;;;36.25;17.60;;;2.00;99.90;;;;;;5013724;28;20064;-55
2022/12/15 10:59:03;;;;;;;27.27;16.83;;;2.00;99.90;;;;;;5012101;28;20507;-55
2022/12/15 11:01:34;;;;;;;53.75;19.77;;;2.10;99.90;;;;;;5012034;28;20048;-54
2022/12/15 11:04:01;;;;;;;39.45;17.67;;;2.10;99.90;;;;;;5013698;28;20386;-56
2022/12/15 11:06:31;;;;;;;34.35;18.85;;;2.10;99.90;;;;;;5012300;28;20045;-55
2022/12/15 11:09:32;;;;;;;32.75;18.38;;;2.10;99.90;;;;;;5011853;28;20487;-56
2022/12/15 11:14:49;;;;;;;39.97;20.35;;;2.10;99.90;;;;;;5014565;28;20495;-53
2022/12/15 11:17:21;;;;;;;66.45;23.95;;;2.10;99.90;;;;;;5013525;28;20527;-54
2022/12/15 11:19:54;;;;;;;82.70;21.88;;;2.10;99.90;;;;;;5015364;28;20489;-56
2022/12/15 11:22:50;;;;;;;30.10;19.27;;;2.10;99.90;;;;;;5012039;28;20064;-52
2022/12/15 11:25:28;;;;;;;97.50;21.20;;;2.10;99.90;;;;;;5014055;28;20076;-54
2022/12/15 11:27:58;;;;;;;24.92;16.38;;;2.10;99.90;;;;;;5013575;28;20119;-55
2022/12/15 11:30:32;;;;;;;37.20;17.55;;;2.10;99.90;;;;;;5012676;28;20041;-55
2022/12/15 11:33:00;;;;;;;29.23;17.63;;;2.10;99.90;;;;;;5012613;28;20359;-52
2022/12/15 11:35:51;;;;;;;27.00;16.90;;;2.10;99.90;;;;;;5013005;28;20045;-55
2022/12/15 11:38:18;;;;;;;211.18;22.90;;;2.10;99.90;;;;;;5012450;28;20049;-56
2022/12/15 11:40:45;;;;;;;173.40;22.00;;;2.10;99.90;;;;;;5013629;28;20698;-54
2022/12/15 11:43:25;;;;;;;55.40;19.35;;;2.10;99.90;;;;;;5013328;28;20358;-54
2022/12/15 11:46:17;;;;;;;27.92;18.73;;;2.00;99.90;;;;;;5012199;28;20060;-57
2022/12/15 11:48:59;;;;;;;62.47;19.70;;;2.00;99.90;;;;;;5009246;28;20101;-55
2022/12/15 11:51:47;;;;;;;30.55;19.67;;;2.00;99.90;;;;;;5012600;28;20049;-54
2022/12/15 11:54:41;;;;;;;33.50;20.27;;;2.00;99.90;;;;;;5011698;28;20044;-55
2022/12/15 11:57:21;;;;;;;80.07;21.73;;;2.00;99.90;;;;;;5012575;28;20064;-54
2022/12/15 12:00:07;;;;;;;74.78;20.63;;;2.00;99.90;;;;;;5013178;28;20120;-54
2022/12/15 12:03:06;;;;;;;124.13;22.38;;;2.00;99.90;;;;;;5011810;28;20048;-55
2022/12/15 12:05:49;;;;;;;31.20;19.00;;;2.00;99.90;;;;;;5011855;28;20292;-53
2022/12/15 12:08:28;;;;;;;37.35;19.08;;;1.90;99.90;;;;;;5012483;28;20049;-56
2022/12/15 12:11:12;;;;;;;34.33;19.98;;;1.90;99.90;;;;;;5013609;28;20603;-56
2022/12/15 12:14:04;;;;;;;85.05;23.33;;;1.90;99.90;;;;;;5011586;28;20052;-56
2022/12/15 12:17:05;;;;;;;33.72;21.23;;;1.90;99.90;;;;;;5013690;28;20545;-60
2022/12/15 12:20:30;;;;;;;43.47;20.65;;;1.80;99.90;;;;;;5013979;28;20064;-54
2022/12/15 12:23:04;;;;;;;119.13;23.73;;;1.80;99.90;;;;;;5007409;28;20080;-52
2022/12/15 12:25:40;;;;;;;43.90;22.48;;;1.80;99.90;;;;;;5011744;28;20631;-55
2022/12/15 12:28:21;;;;;;;59.10;22.98;;;1.80;99.90;;;;;;5011586;28;20119;-55
2022/12/15 12:30:48;;;;;;;72.38;22.27;;;1.80;99.90;;;;;;4998695;28;20578;-53
2022/12/15 12:33:34;;;;;;;66.75;23.88;;;1.70;99.90;;;;;;5016480;28;20041;-54
2022/12/15 12:36:10;;;;;;;62.05;23.90;;;1.70;99.90;;;;;;5012345;28;20127;-54
2022/12/15 12:38:47;;;;;;;35.93;23.70;;;1.70;99.90;;;;;;5028262;28;20119;-55
2022/12/15 12:41:43;;;;;;;95.72;25.05;;;1.80;99.90;;;;;;5010038;28;20136;-55
2022/12/15 12:44:35;;;;;;;77.32;24.00;;;1.80;99.90;;;;;;5010466;28;20068;-55
2022/12/15 12:47:19;;;;;;;34.35;22.13;;;1.70;99.90;;;;;;5009745;28;20049;-56
2022/12/15 12:49:59;;;;;;;55.70;24.33;;;1.70;99.90;;;;;;5010597;28;20115;-55
2022/12/15 12:52:30;;;;;;;53.17;23.63;;;1.70;99.90;;;;;;5012585;28;20156;-54
2022/12/15 12:55:35;;;;;;;219.73;28.48;;;1.70;99.90;;;;;;5013330;28;20049;-56
2022/12/15 12:58:02;;;;;;;152.77;27.58;;;1.70;99.90;;;;;;5010280;28;20160;-54
2022/12/15 13:00:30;;;;;;;40.83;23.88;;;1.70;99.90;;;;;;5012063;28;20075;-54
2022/12/15 13:03:15;;;;;;;80.15;23.88;;;1.70;99.90;;;;;;5018602;28;20057;-55
2022/12/15 13:05:44;;;;;;;55.35;25.25;;;1.70;99.90;;;;;;5013201;28;20064;-54
2022/12/15 13:08:14;;;;;;;219.60;31.98;;;1.60;99.90;;;;;;5016035;28;20046;-55
2022/12/15 13:10:45;;;;;;;;;;;1.70;99.90;;;;;;5015198;28;20329;-55
2022/12/15 13:13:28;;;;;;;140.48;25.58;;;1.60;99.90;;;;;;5014463;28;19931;-59
2022/12/15 13:16:19;;;;;;;66.47;23.48;;;1.60;99.90;;;;;;5012806;28;20186;-54
2022/12/15 13:19:05;;;;;;;75.93;23.83;;;1.50;99.90;;;;;;5015462;28;20056;-54
2022/12/15 13:21:44;;;;;;;389.02;37.53;;;1.50;99.90;;;;;;5014808;28;20632;-57
2022/12/15 13:24:28;;;;;;;97.18;26.48;;;1.50;99.90;;;;;;5017743;28;20115;-66
2022/12/15 13:27:16;;;;;;;41.33;24.38;;;1.50;99.90;;;;;;5014796;28;20091;-60
2022/12/15 13:30:14;;;;;;;385.80;40.03;;;1.50;99.90;;;;;;5014366;28;20564;-62
2022/12/15 13:32:44;;;;;;;92.80;27.23;;;1.50;99.90;;;;;;5014473;28;20096;-59
2022/12/15 13:35:11;;;;;;;62.70;26.48;;;1.50;99.90;;;;;;5011133;28;20157;-62
2022/12/15 13:37:41;;;;;;;116.93;29.38;;;1.50;99.90;;;;;;5016600;28;20041;-55
2022/12/15 13:40:32;;;;;;;94.35;27.35;;;1.50;99.90;;;;;;5014734;28;20132;-59
2022/12/15 13:43:05;;;;;;;73.10;26.80;;;1.50;99.90;;;;;;5014592;28;20574;-52
2022/12/15 13:45:47;;;;;;;409.98;40.15;;;1.50;99.90;;;;;;5014764;28;20067;-54
2022/12/15 13:48:34;;;;;;;214.75;30.80;;;1.40;99.90;;;;;;5013463;28;20049;-56
2022/12/15 13:51:26;;;;;;;244.80;34.22;;;1.40;99.90;;;;;;5013038;28;20516;-54
2022/12/15 13:54:14;;;;;;;178.40;31.52;;;1.30;99.90;;;;;;5014774;28;20561;-54
2022/12/15 13:56:49;;;;;;;441.13;45.53;;;1.30;99.90;;;;;;5016812;28;20057;-56
2022/12/15 13:59:39;;;;;;;245.60;34.58;;;1.30;99.90;;;;;;5014685;28;20045;-54
2022/12/15 14:02:34;;;;;;;86.72;30.17;;;1.20;99.90;;;;;;5010952;28;20317;-55
2022/12/15 14:05:20;;;;;;;140.90;33.42;;;1.20;99.90;;;;;;5012235;28;20687;-55
2022/12/15 14:07:56;;;;;;;201.93;31.70;;;1.10;99.90;;;;;;5010367;28;20068;-55
2022/12/15 14:10:38;;;;;;;54.53;31.13;;;1.10;99.90;;;;;;5012452;28;20261;-54
2022/12/15 14:13:23;;;;;;;128.18;32.63;;;1.10;99.90;;;;;;5015135;28;20522;-55
2022/12/15 14:15:54;;;;;;;226.80;37.70;;;1.10;99.90;;;;;;5031759;28;20049;-56
2022/12/15 14:18:28;;;;;;;59.03;30.95;;;1.10;99.90;;;;;;5013587;28;20144;-54
2022/12/15 14:20:56;;;;;;;162.95;32.55;;;1.10;99.90;;;;;;5017523;28;20475;-55
2022/12/15 14:23:28;;;;;;;93.75;32.28;;;1.10;99.90;;;;;;5013086;28;20041;-56
2022/12/15 14:26:07;;;;;;;318.30;45.22;;;1.10;99.90;;;;;;5013631;28;20435;-55
2022/12/15 14:28:36;;;;;;;95.07;33.65;;;1.10;99.90;;;;;;5011913;28;20478;-54
2022/12/15 14:31:08;;;;;;;64.47;31.23;;;1.00;99.90;;;;;;5014329;28;20033;-57
2022/12/15 14:33:39;;;;;;;489.13;51.55;;;1.00;99.90;;;;;;5014900;28;20091;-55
2022/12/15 14:36:09;;;;;;;75.88;34.03;;;1.00;99.90;;;;;;5009635;28;20052;-53
2022/12/15 14:38:49;;;;;;;334.17;45.70;;;1.00;99.90;;;;;;5014522;28;20041;-54
2022/12/15 14:41:22;;;;;;;322.35;46.10;;;1.00;99.90;;;;;;5013836;28;20529;-56
2022/12/15 14:43:50;;;;;;;106.80;38.15;;;1.00;99.90;;;;;;5013216;28;20057;-57
2022/12/15 14:46:37;;;;;;;109.90;37.17;;;1.00;99.90;;;;;;5015200;28;20430;-55
2022/12/15 14:49:06;;;;;;;398.42;48.22;;;1.00;99.90;;;;;;5012284;28;20224;-54
2022/12/15 14:51:43;;;;;;;304.33;43.33;;;1.10;99.90;;;;;;5013126;28;20072;-57
2022/12/15 14:54:35;;;;;;;59.15;33.22;;;1.00;99.90;;;;;;5015344;28;20065;-55
2022/12/15 14:57:13;;;;;;;70.88;33.20;;;1.00;99.90;;;;;;5014039;28;20050;-55
2022/12/15 14:59:43;;;;;;;58.13;33.78;;;1.00;99.90;;;;;;5013213;28;20401;-55
2022/12/15 15:02:11;;;;;;;1013.92;80.65;;;1.00;99.90;;;;;;5010399;28;20537;-54
2022/12/15 15:04:39;;;;;;;734.85;63.75;;;1.00;99.90;;;;;;5013953;28;20582;-54
2022/12/15 15:07:16;;;;;;;96.70;35.42;;;1.00;99.90;;;;;;5010635;28;20352;-55
2022/12/15 15:09:45;;;;;;;175.85;42.28;;;1.00;99.90;;;;;;5011239;28;20151;-54
2022/12/15 15:12:16;;;;;;;181.80;39.15;;;0.90;99.90;;;;;;5015282;28;20052;-54
2022/12/15 15:14:52;;;;;;;153.27;40.42;;;1.00;99.90;;;;;;5014574;28;20041;-55
2022/12/15 15:17:26;;;;;;;72.50;33.37;;;1.00;99.90;;;;;;5012675;28;20685;-55
2022/12/15 15:19:59;;;;;;;609.03;59.40;;;1.00;99.90;;;;;;5011919;28;20466;-57
2022/12/15 15:22:35;;;;;;;287.67;44.80;;;1.00;99.90;;;;;;5011675;28;20049;-55
2022/12/15 15:25:18;;;;;;;164.77;41.30;;;0.90;99.90;;;;;;5010277;28;20100;-55
2022/12/15 15:27:45;;;;;;;99.55;38.42;;;1.00;99.90;;;;;;5022961;28;20476;-54
2022/12/15 15:30:16;;;;;;;;;;;1.00;99.90;;;;;;5012759;28;20563;-55
2022/12/15 15:32:57;;;;;;;201.60;38.83;;;1.00;99.90;;;;;;5010357;28;19951;-50
2022/12/15 15:35:30;;;;;;;185.38;40.00;;;1.00;99.90;;;;;;5010292;28;20227;-54